Time;durP1;ratioP1;P1;durP2;ratioP2;P2;SDS_P1;SDS_P2;PMS_P1;PMS_P2;Temp;Humidity;BMP_temperature;BMP_pressure;BME280_temperature;BME280_humidity;BME280_pressure;Samples;Min_cycle;Max_cycle;Signal;HPM_P1;HPM_P2
2023/04/26 00:00:20;;;;;;;7.07;4.60;;;256.60;2252.80;;;;;;5051022;28;20537;-62
2023/04/26 00:02:47;;;;;;;7.85;4.45;;;256.60;2252.80;;;;;;5051673;28;20029;-66
2023/04/26 00:05:14;;;;;;;6.13;3.92;;;256.60;2252.80;;;;;;5051443;28;20033;-59
2023/04/26 00:07:41;;;;;;;7.40;5.28;;;256.60;2252.80;;;;;;5051645;28;20021;-60
2023/04/26 00:10:09;;;;;;;7.95;5.47;;;256.50;2252.80;;;;;;5051655;28;20075;-59
2023/04/26 00:12:35;;;;;;;8.55;5.68;;;256.40;2252.80;;;;;;5052046;28;20029;-69
2023/04/26 00:15:02;;;;;;;10.02;6.43;;;256.40;2252.80;;;;;;5051315;28;20086;-62
2023/04/26 00:17:28;;;;;;;7.00;5.00;;;256.40;2252.80;;;;;;5051561;28;20116;-69
2023/04/26 00:19:56;;;;;;;6.25;4.35;;;256.50;2252.80;;;;;;5051404;28;20064;-64
2023/04/26 00:22:23;;;;;;;8.98;5.25;;;256.60;2252.80;;;;;;5051524;28;20144;-59
2023/04/26 00:24:48;;;;;;;5.70;4.05;;;256.80;2252.80;;;;;;5051270;28;20029;-65
2023/04/26 00:27:15;;;;;;;6.65;4.57;;;256.80;2252.80;;;;;;5051009;28;20021;-70
2023/04/26 00:29:41;;;;;;;8.35;5.55;;;256.80;2252.80;;;;;;5050417;28;20069;-59
2023/04/26 00:32:06;;;;;;;7.05;5.05;;;256.90;2252.80;;;;;;5050543;28;20033;-65
2023/04/26 00:34:33;;;;;;;7.78;5.95;;;256.80;2252.80;;;;;;5050650;28;20029;-68
2023/04/26 00:36:59;;;;;;;23.20;12.93;;;256.80;2252.80;;;;;;5050075;28;20123;-68
2023/04/26 00:39:25;;;;;;;7.93;5.00;;;256.80;2252.80;;;;;;5050461;28;20143;-58
2023/04/26 00:41:51;;;;;;;59.22;31.33;;;256.80;2252.80;;;;;;5050712;28;20024;-64
2023/04/26 00:44:17;;;;;;;51.92;29.23;;;256.90;2252.80;;;;;;5049947;28;20017;-61
2023/04/26 00:46:42;;;;;;;7.93;5.93;;;256.90;2252.80;;;;;;5046230;28;20036;-64
2023/04/26 00:49:11;;;;;;;43.28;22.38;;;281.60;2278.40;;;;;;5036504;28;20063;-59
2023/04/26 00:51:37;;;;;;;125.30;63.55;;;281.70;2278.40;;;;;;5048960;28;20053;-59
2023/04/26 00:54:03;;;;;;;12.98;7.75;;;281.70;2278.40;;;;;;5051302;28;20028;-61
2023/04/26 00:56:30;;;;;;;12.95;7.93;;;281.60;2278.40;;;;;;5050884;28;20036;-59
2023/04/26 00:58:56;;;;;;;9.35;6.45;;;281.60;2278.40;;;;;;5050729;28;20666;-60
2023/04/26 01:01:22;;;;;;;8.43;5.85;;;281.60;2278.40;;;;;;5051132;28;20028;-61
2023/04/26 01:03:48;;;;;;;8.32;5.30;;;281.60;2278.40;;;;;;5050695;28;20366;-68
2023/04/26 01:06:13;;;;;;;8.00;5.13;;;281.60;2278.40;;;;;;5050325;28;20082;-61
2023/04/26 01:08:40;;;;;;;12.32;7.78;;;281.60;2278.40;;;;;;5050883;28;20033;-58
2023/04/26 01:11:06;;;;;;;18.25;13.30;;;256.90;2252.80;;;;;;5031389;28;20121;-59
2023/04/26 01:13:32;;;;;;;7.43;5.18;;;281.70;2278.40;;;;;;5043826;28;20459;-69
2023/04/26 01:15:58;;;;;;;6.95;4.85;;;281.80;2278.40;;;;;;5050514;28;20044;-59
2023/04/26 01:18:24;;;;;;;8.73;5.65;;;281.90;2278.40;;;;;;5042829;28;20080;-59
2023/04/26 01:20:52;;;;;;;8.55;5.00;;;281.90;2278.40;;;;;;5032001;28;20482;-69
2023/04/26 01:23:17;;;;;;;8.68;5.15;;;282.00;2278.40;;;;;;5050203;28;20035;-64
2023/04/26 01:25:43;;;;;;;8.80;6.53;;;282.00;2278.40;;;;;;5050735;28;20021;-59
2023/04/26 01:28:09;;;;;;;8.05;4.88;;;282.00;2278.40;;;;;;5050447;28;20057;-60
2023/04/26 01:30:35;;;;;;;37.25;17.23;;;282.10;2278.40;;;;;;5050470;28;20458;-68
2023/04/26 01:33:01;;;;;;;43.58;23.95;;;282.10;2278.40;;;;;;5039599;28;20072;-70
2023/04/26 01:35:26;;;;;;;40.70;20.98;;;282.10;2278.40;;;;;;5034661;28;20086;-61
2023/04/26 01:37:52;;;;;;;18.65;11.07;;;282.10;2278.40;;;;;;5050118;28;20028;-59
2023/04/26 01:40:18;;;;;;;16.13;8.82;;;282.10;2278.40;;;;;;5050377;28;20068;-59
2023/04/26 01:42:43;;;;;;;67.32;38.03;;;282.10;2278.40;;;;;;5050016;28;20526;-58
2023/04/26 01:45:10;;;;;;;12.35;7.55;;;282.20;2278.40;;;;;;5050060;28;20409;-60
2023/04/26 01:47:36;;;;;;;8.80;6.03;;;282.20;2278.40;;;;;;5049951;28;20057;-59
2023/04/26 01:50:02;;;;;;;8.27;5.82;;;282.20;2278.40;;;;;;5049879;28;20037;-60
2023/04/26 01:52:27;;;;;;;8.20;6.00;;;282.20;2278.40;;;;;;5049514;28;20053;-69
2023/04/26 01:54:53;;;;;;;11.85;6.97;;;282.20;2278.40;;;;;;5049938;28;20056;-60
2023/04/26 01:57:19;;;;;;;10.00;6.35;;;282.20;2278.40;;;;;;5049877;28;20414;-69
2023/04/26 01:59:45;;;;;;;11.27;6.28;;;282.20;2278.40;;;;;;5049767;28;20025;-59
2023/04/26 02:02:11;;;;;;;15.15;9.60;;;282.10;2278.40;;;;;;5049953;28;20036;-61
2023/04/26 02:04:37;;;;;;;20.15;9.75;;;282.40;2278.40;;;;;;5049884;28;20025;-59
2023/04/26 02:07:02;;;;;;;15.27;9.18;;;282.10;2278.40;;;;;;5048393;28;20033;-64
2023/04/26 02:09:28;;;;;;;11.10;6.97;;;282.10;2278.40;;;;;;5049658;28;20048;-59
2023/04/26 02:11:53;;;;;;;15.35;8.70;;;282.10;2278.40;;;;;;5049632;28;20096;-59
2023/04/26 02:14:19;;;;;;;12.45;6.78;;;282.10;2278.40;;;;;;5049510;28;20021;-59
2023/04/26 02:16:45;;;;;;;8.02;6.07;;;282.20;2278.40;;;;;;5048977;28;20037;-60
2023/04/26 02:19:11;;;;;;;9.23;6.50;;;282.20;2278.40;;;;;;5049263;28;20064;-65
2023/04/26 02:21:53;;;;;;;9.20;6.55;;;282.20;2278.40;;;;;;5049237;28;20024;-68
2023/04/26 02:24:20;;;;;;;12.43;7.80;;;282.20;2278.40;;;;;;5049259;28;20497;-59
2023/04/26 02:26:46;;;;;;;11.43;8.07;;;282.20;2278.40;;;;;;5049491;28;20064;-59
2023/04/26 02:29:11;;;;;;;11.18;7.90;;;282.20;2278.40;;;;;;5049317;28;20435;-59
2023/04/26 02:31:37;;;;;;;10.13;7.25;;;282.10;2278.40;;;;;;5049257;28;20040;-59
2023/04/26 02:34:03;;;;;;;11.50;7.97;;;282.10;2278.40;;;;;;5049643;28;20063;-68
2023/04/26 02:36:29;;;;;;;11.43;8.45;;;282.10;2278.40;;;;;;5049006;28;20049;-69
2023/04/26 02:38:55;;;;;;;9.27;8.07;;;282.00;2278.40;;;;;;5049198;28;20036;-59
2023/04/26 02:41:22;;;;;;;13.52;8.07;;;282.00;2278.40;;;;;;5049590;28;20052;-58
2023/04/26 02:43:47;;;;;;;11.35;8.20;;;282.00;2278.40;;;;;;5049097;28;20029;-59
2023/04/26 02:46:14;;;;;;;10.65;8.40;;;281.90;2278.40;;;;;;5049214;28;20024;-58
2023/04/26 02:48:39;;;;;;;10.80;8.75;;;281.90;2278.40;;;;;;5048934;28;20471;-60
2023/04/26 02:51:05;;;;;;;15.40;10.63;;;281.80;2278.40;;;;;;5048734;28;20111;-60
2023/04/26 02:53:31;;;;;;;12.00;8.82;;;281.80;2278.40;;;;;;5048836;28;20060;-67
2023/04/26 02:55:57;;;;;;;14.68;10.77;;;281.70;2278.40;;;;;;5048900;28;20092;-61
2023/04/26 02:58:22;;;;;;;28.55;17.13;;;281.60;2278.40;;;;;;5048882;28;20017;-69
2023/04/26 03:00:48;;;;;;;15.80;9.75;;;281.60;2278.40;;;;;;5049108;28;20040;-70
2023/04/26 03:03:14;;;;;;;27.80;18.73;;;281.60;2278.40;;;;;;5048923;28;20075;-58
2023/04/26 03:05:40;;;;;;;13.93;10.82;;;282.00;2278.40;;;;;;5034240;28;20029;-59
2023/04/26 03:08:06;;;;;;;20.27;13.70;;;281.70;2278.40;;;;;;5037374;28;20058;-62
2023/04/26 03:10:32;;;;;;;25.15;16.75;;;281.70;2278.40;;;;;;5049374;28;20379;-59
2023/04/26 03:12:58;;;;;;;18.20;13.77;;;281.70;2278.40;;;;;;5048691;28;20025;-59
2023/04/26 03:15:23;;;;;;;16.23;10.95;;;281.60;2278.40;;;;;;5048896;28;20438;-59
2023/04/26 03:17:49;;;;;;;12.55;8.63;;;281.60;2278.40;;;;;;5048659;28;20021;-59
2023/04/26 03:20:15;;;;;;;12.75;10.07;;;281.70;2278.40;;;;;;5048621;28;20021;-59
2023/04/26 03:22:41;;;;;;;15.40;10.30;;;281.70;2278.40;;;;;;5048789;28;20041;-59
2023/04/26 03:25:07;;;;;;;15.60;10.52;;;281.70;2278.40;;;;;;5048998;28;20029;-66
2023/04/26 03:27:33;;;;;;;14.93;11.73;;;281.60;2278.40;;;;;;5049122;28;20115;-60
2023/04/26 03:29:59;;;;;;;13.23;10.07;;;281.70;2278.40;;;;;;5051873;28;20470;-59
2023/04/26 03:32:25;;;;;;;18.67;12.15;;;281.80;2278.40;;;;;;5052476;28;20975;-59
2023/04/26 03:34:50;;;;;;;18.77;13.30;;;281.70;2278.40;;;;;;5052701;28;20025;-59
2023/04/26 03:37:16;;;;;;;14.05;9.40;;;281.70;2278.40;;;;;;5052379;28;20041;-64
2023/04/26 03:39:42;;;;;;;12.18;9.82;;;281.60;2278.40;;;;;;5052478;28;20017;-59
2023/04/26 03:42:07;;;;;;;12.82;9.15;;;281.60;2278.40;;;;;;5052384;28;20028;-60
2023/04/26 03:44:33;;;;;;;15.48;10.43;;;281.60;2278.40;;;;;;5052845;28;20049;-60
2023/04/26 03:46:59;;;;;;;14.52;8.45;;;281.60;2278.40;;;;;;5052160;28;20025;-60
2023/04/26 03:49:25;;;;;;;14.52;9.50;;;281.60;2278.40;;;;;;5052387;28;20032;-60
2023/04/26 03:51:50;;;;;;;14.70;9.50;;;281.60;2278.40;;;;;;5052007;28;20120;-70
2023/04/26 03:54:16;;;;;;;16.13;10.60;;;256.90;2252.80;;;;;;5052178;28;20044;-69
2023/04/26 03:56:42;;;;;;;14.23;9.38;;;281.60;2278.40;;;;;;5052348;28;20110;-70
2023/04/26 03:59:08;;;;;;;14.70;9.93;;;256.90;2252.80;;;;;;5052363;28;20048;-60
2023/04/26 04:01:35;;;;;;;15.30;8.98;;;281.60;2278.40;;;;;;5052146;28;20029;-64
2023/04/26 04:04:01;;;;;;;13.32;8.57;;;281.60;2278.40;;;;;;5052200;28;20017;-68
2023/04/26 04:06:27;;;;;;;13.63;9.90;;;281.60;2278.40;;;;;;5051797;28;20532;-60
2023/04/26 04:08:53;;;;;;;12.55;9.32;;;281.60;2278.40;;;;;;5052269;28;20025;-69
2023/04/26 04:11:19;;;;;;;13.68;8.00;;;281.60;2278.40;;;;;;5051974;28;20039;-60
2023/04/26 04:13:45;;;;;;;11.13;7.85;;;281.60;2278.40;;;;;;5051958;28;20021;-59
2023/04/26 04:16:11;;;;;;;12.43;8.70;;;256.90;2252.80;;;;;;5051610;28;20036;-59
2023/04/26 04:18:36;;;;;;;14.93;7.07;;;281.60;2278.40;;;;;;5051999;28;20021;-59
2023/04/26 04:21:02;;;;;;;13.13;8.40;;;281.60;2278.40;;;;;;5051391;28;20037;-62
2023/04/26 04:23:28;;;;;;;10.40;7.63;;;256.90;2252.80;;;;;;5051466;28;20101;-57
2023/04/26 04:25:54;;;;;;;13.95;9.02;;;256.90;2252.80;;;;;;5051687;28;20025;-58
2023/04/26 04:28:21;;;;;;;18.33;8.48;;;281.70;2278.40;;;;;;5051370;28;20023;-70
2023/04/26 04:30:47;;;;;;;10.23;6.65;;;281.60;2278.40;;;;;;5051189;28;20170;-69
2023/04/26 04:33:12;;;;;;;11.52;7.38;;;281.60;2278.40;;;;;;5051449;28;20108;-57
2023/04/26 04:35:41;;;;;;;10.10;6.75;;;281.60;2278.40;;;;;;5051361;28;20163;-59
2023/04/26 04:38:07;;;;;;;10.07;7.10;;;281.70;2278.40;;;;;;5051706;28;20025;-59
2023/04/26 04:40:32;;;;;;;14.38;7.90;;;281.70;2278.40;;;;;;5050553;28;20033;-63
2023/04/26 04:42:59;;;;;;;12.73;8.90;;;281.70;2278.40;;;;;;5051366;28;20055;-58
2023/04/26 04:45:26;;;;;;;9.80;7.55;;;281.70;2278.40;;;;;;5047729;28;20806;-69
2023/04/26 04:47:52;;;;;;;8.68;6.75;;;281.70;2278.40;;;;;;5035658;28;20033;-59
2023/04/26 04:50:19;;;;;;;11.73;7.88;;;281.80;2278.40;;;;;;5030194;28;20037;-64
2023/04/26 04:52:45;;;;;;;14.30;7.68;;;281.80;2278.40;;;;;;5034918;28;20399;-69
2023/04/26 04:55:11;;;;;;;16.45;11.07;;;281.80;2278.40;;;;;;5050867;28;20025;-61
2023/04/26 04:57:37;;;;;;;8.70;6.72;;;281.70;2278.40;;;;;;5051034;28;20564;-57
2023/04/26 05:00:11;;;;;;;11.63;7.30;;;281.70;2278.40;;;;;;5050883;28;20017;-65
2023/04/26 05:02:37;;;;;;;12.23;6.90;;;281.70;2278.40;;;;;;5051106;28;20080;-58
2023/04/26 05:05:03;;;;;;;11.25;6.72;;;281.70;2278.40;;;;;;5050946;28;20435;-67
2023/04/26 05:07:31;;;;;;;12.65;7.63;;;281.70;2278.40;;;;;;5050708;28;20029;-72
2023/04/26 05:09:56;;;;;;;11.23;7.93;;;281.70;2278.40;;;;;;5050381;28;20467;-60
2023/04/26 05:12:22;;;;;;;9.48;6.70;;;281.70;2278.40;;;;;;5050771;28;20029;-59
2023/04/26 05:14:48;;;;;;;11.57;7.75;;;281.70;2278.40;;;;;;5050614;28;20036;-68
2023/04/26 05:17:14;;;;;;;9.88;7.60;;;281.70;2278.40;;;;;;5036629;28;20049;-71
2023/04/26 05:19:40;;;;;;;23.48;13.85;;;281.80;2278.40;;;;;;5034254;28;20055;-68
2023/04/26 05:22:05;;;;;;;37.65;21.35;;;281.80;2278.40;;;;;;5050543;28;20131;-59
2023/04/26 05:24:31;;;;;;;13.60;9.40;;;281.90;2278.40;;;;;;5050262;28;20112;-65
2023/04/26 05:26:58;;;;;;;10.52;8.02;;;281.90;2278.40;;;;;;5031474;28;20036;-60
2023/04/26 05:29:27;;;;;;;12.30;8.48;;;281.90;2278.40;;;;;;5042959;28;20036;-69
2023/04/26 05:31:53;;;;;;;12.73;8.60;;;282.00;2278.40;;;;;;5050050;28;20029;-59
2023/04/26 05:34:19;;;;;;;16.58;8.38;;;281.90;2278.40;;;;;;5050059;28;20021;-69
2023/04/26 05:36:45;;;;;;;23.95;20.25;;;281.90;2278.40;;;;;;5049988;28;20032;-59
2023/04/26 05:39:11;;;;;;;17.73;14.65;;;282.00;2278.40;;;;;;5049726;28;20029;-69
2023/04/26 05:41:37;;;;;;;18.83;13.98;;;282.00;2278.40;;;;;;5050322;28;20071;-60
2023/04/26 05:44:03;;;;;;;11.65;9.25;;;282.10;2278.40;;;;;;5050304;28;20021;-62
2023/04/26 05:46:28;;;;;;;9.98;7.97;;;282.10;2278.40;;;;;;5049914;28;20025;-59
2023/04/26 05:48:54;;;;;;;11.52;7.80;;;282.10;2278.40;;;;;;5050312;28;20036;-68
2023/04/26 05:51:20;;;;;;;14.82;10.23;;;282.10;2278.40;;;;;;5049153;28;20127;-60
2023/04/26 05:53:46;;;;;;;12.77;8.80;;;282.10;2278.40;;;;;;5049257;28;20032;-59
2023/04/26 05:56:11;;;;;;;11.35;9.23;;;282.10;2278.40;;;;;;5050160;28;20280;-62
2023/04/26 05:58:37;;;;;;;14.77;10.15;;;282.10;2278.40;;;;;;5049791;28;20032;-59
2023/04/26 06:01:03;;;;;;;12.57;10.27;;;282.10;2278.40;;;;;;5050091;28;20383;-68
2023/04/26 06:03:28;;;;;;;14.68;9.50;;;282.10;2278.40;;;;;;5049967;28;20037;-59
2023/04/26 06:05:54;;;;;;;11.65;9.30;;;282.20;2278.40;;;;;;5049844;28;20449;-57
2023/04/26 06:08:20;;;;;;;13.32;8.48;;;282.20;2278.40;;;;;;5049353;28;20433;-68
2023/04/26 06:10:46;;;;;;;14.13;8.75;;;282.40;2278.40;;;;;;5040926;28;20060;-60
2023/04/26 06:13:11;;;;;;;12.98;7.53;;;282.40;2278.40;;;;;;5045240;28;20049;-63
2023/04/26 06:15:37;;;;;;;10.93;7.63;;;307.20;2304.00;;;;;;5049305;28;20052;-67
2023/04/26 06:18:06;;;;;;;12.00;8.02;;;307.30;2304.00;;;;;;5049481;28;20040;-61
2023/04/26 06:20:32;;;;;;;9.05;7.57;;;282.50;2278.40;;;;;;5049279;28;20057;-60
2023/04/26 06:22:58;;;;;;;12.50;9.20;;;307.30;2304.00;;;;;;5048979;28;20028;-66
2023/04/26 06:25:23;;;;;;;11.55;8.18;;;307.30;2304.00;;;;;;5040180;28;20030;-66
2023/04/26 06:27:49;;;;;;;10.45;8.85;;;307.30;2304.00;;;;;;5044834;28;20037;-60
2023/04/26 06:30:15;;;;;;;9.10;7.70;;;307.40;2304.00;;;;;;5044599;28;20028;-65
2023/04/26 06:32:41;;;;;;;12.35;8.35;;;307.50;2304.00;;;;;;5039883;28;20033;-60
2023/04/26 06:35:07;;;;;;;10.20;8.07;;;307.60;2304.00;;;;;;5049120;28;20573;-60
2023/04/26 06:37:33;;;;;;;10.13;7.50;;;307.50;2304.00;;;;;;5049215;28;20037;-60
2023/04/26 06:40:00;;;;;;;11.07;8.30;;;307.50;2304.00;;;;;;5049287;28;20021;-61
2023/04/26 06:42:26;;;;;;;10.02;7.90;;;307.40;2304.00;;;;;;5048909;28;20391;-60
2023/04/26 06:44:52;;;;;;;10.73;8.48;;;307.50;2304.00;;;;;;5049173;28;20021;-61
2023/04/26 06:47:17;;;;;;;12.20;7.57;;;307.40;2304.00;;;;;;5049336;28;20138;-62
2023/04/26 06:49:44;;;;;;;12.13;9.25;;;307.40;2304.00;;;;;;5048962;28;20031;-66
2023/04/26 06:52:09;;;;;;;11.60;9.38;;;307.50;2304.00;;;;;;5048842;28;20041;-60
2023/04/26 06:54:35;;;;;;;10.73;8.65;;;307.60;2304.00;;;;;;5049208;28;20051;-65
2023/04/26 06:57:01;;;;;;;10.07;8.02;;;307.60;2304.00;;;;;;5048778;28;20239;-60
2023/04/26 06:59:26;;;;;;;15.93;7.55;;;307.50;2304.00;;;;;;5048861;28;20025;-60
2023/04/26 07:01:53;;;;;;;8.68;6.97;;;307.70;2304.00;;;;;;5044479;28;20045;-60
2023/04/26 07:04:19;;;;;;;12.40;7.97;;;307.70;2304.00;;;;;;5029615;28;20009;-63
2023/04/26 07:06:45;;;;;;;10.68;7.95;;;307.90;2304.00;;;;;;5052793;28;20075;-60
2023/04/26 07:09:11;;;;;;;10.63;8.93;;;307.80;2304.00;;;;;;5049312;28;20029;-60
2023/04/26 07:11:37;;;;;;;9.40;7.78;;;307.70;2304.00;;;;;;5032651;28;20052;-65
2023/04/26 07:14:03;;;;;;;11.23;9.13;;;307.60;2304.00;;;;;;5032932;28;20475;-61
2023/04/26 07:16:30;;;;;;;13.77;9.93;;;307.40;2304.00;;;;;;5032582;28;20065;-60
2023/04/26 07:18:58;;;;;;;10.98;8.90;;;307.30;2304.00;;;;;;5037796;28;20028;-59
2023/04/26 07:21:25;;;;;;;11.65;8.90;;;282.50;2278.40;;;;;;5038430;28;20058;-60
2023/04/26 07:23:55;;;;;;;17.13;11.73;;;282.50;2278.40;;;;;;5052676;28;20029;-60
2023/04/26 07:26:25;;;;;;;13.00;10.25;;;282.30;2278.40;;;;;;5052736;28;20094;-66
2023/04/26 07:28:51;;;;;;;16.65;11.27;;;282.20;2278.40;;;;;;5053008;28;20032;-67
2023/04/26 07:31:17;;;;;;;15.93;12.35;;;282.20;2278.40;;;;;;5051385;28;20029;-66
2023/04/26 07:33:43;;;;;;;14.02;10.65;;;282.20;2278.40;;;;;;5033031;28;20025;-66
2023/04/26 07:36:09;;;;;;;12.50;10.52;;;282.20;2278.40;;;;;;5047061;28;20048;-61
2023/04/26 07:38:35;;;;;;;13.23;10.55;;;282.20;2278.40;;;;;;5052883;28;20021;-61
2023/04/26 07:41:00;;;;;;;15.13;11.43;;;282.20;2278.40;;;;;;5052456;28;20025;-68
2023/04/26 07:43:27;;;;;;;11.35;9.52;;;282.20;2278.40;;;;;;5052201;28;20714;-60
2023/04/26 07:45:53;;;;;;;11.68;10.25;;;282.30;2278.40;;;;;;5052314;28;20032;-61
2023/04/26 07:48:18;;;;;;;11.90;10.70;;;282.20;2278.40;;;;;;5052250;28;20386;-59
2023/04/26 07:50:44;;;;;;;13.93;11.63;;;282.20;2278.40;;;;;;5051365;28;20025;-60
2023/04/26 07:53:10;;;;;;;13.40;9.48;;;282.10;2278.40;;;;;;5052191;28;20435;-65
2023/04/26 07:55:36;;;;;;;13.45;9.30;;;282.10;2278.40;;;;;;5051757;28;20029;-61
2023/04/26 07:58:02;;;;;;;14.23;10.70;;;282.00;2278.40;;;;;;5052342;28;20025;-60
2023/04/26 08:00:28;;;;;;;14.45;10.35;;;282.00;2278.40;;;;;;5052038;28;20505;-60
2023/04/26 08:02:54;;;;;;;14.35;10.60;;;282.00;2278.40;;;;;;5052354;28;20029;-66
2023/04/26 08:05:20;;;;;;;12.88;10.50;;;282.10;2278.40;;;;;;5051878;28;20021;-67
2023/04/26 08:07:46;;;;;;;14.80;10.07;;;282.10;2278.40;;;;;;5052011;28;20029;-60
2023/04/26 08:10:12;;;;;;;14.88;11.23;;;282.20;2278.40;;;;;;5052311;28;20395;-61
2023/04/26 08:12:38;;;;;;;16.45;10.85;;;282.20;2278.40;;;;;;5051644;28;20375;-61
2023/04/26 08:15:04;;;;;;;12.82;10.10;;;282.50;2278.40;;;;;;5050425;28;20088;-61
2023/04/26 08:17:31;;;;;;;13.07;10.75;;;307.40;2304.00;;;;;;5051894;28;20124;-67
2023/04/26 08:19:57;;;;;;;13.13;9.07;;;307.70;2304.00;;;;;;5051470;28;20021;-60
2023/04/26 08:22:23;;;;;;;12.85;11.13;;;307.90;2304.00;;;;;;5051609;28;20032;-62
2023/04/26 08:24:54;;;;;;;11.45;9.23;;;308.00;2304.00;;;;;;5051283;28;20017;-60
2023/04/26 08:27:20;;;;;;;12.68;10.57;;;308.10;2304.00;;;;;;5051271;28;20032;-66
2023/04/26 08:29:46;;;;;;;12.70;11.20;;;332.90;2329.60;;;;;;5036183;28;20040;-60
2023/04/26 08:32:12;;;;;;;12.40;10.38;;;333.20;2329.60;;;;;;5038313;28;20017;-64
2023/04/26 08:34:38;;;;;;;15.27;12.02;;;333.30;2329.60;;;;;;5051168;28;20025;-64
2023/04/26 08:37:06;;;;;;;12.27;10.77;;;333.60;2329.60;;;;;;5051139;28;20040;-63
2023/04/26 08:39:32;;;;;;;16.20;11.68;;;333.40;2329.60;;;;;;5051373;28;20051;-64
2023/04/26 08:42:05;;;;;;;15.98;11.20;;;333.30;2329.60;;;;;;5051168;28;20030;-67
2023/04/26 08:44:37;;;;;;;11.00;9.35;;;333.10;2329.60;;;;;;5046545;28;20022;-65
2023/04/26 08:47:05;;;;;;;13.15;10.35;;;333.10;2329.60;;;;;;5031058;28;20037;-61
2023/04/26 08:49:43;;;;;;;14.15;11.15;;;333.10;2329.60;;;;;;5050677;28;20029;-61
2023/04/26 08:52:11;;;;;;;11.18;9.55;;;332.90;2329.60;;;;;;5041640;28;20050;-61
2023/04/26 08:54:38;;;;;;;11.60;9.75;;;308.10;2304.00;;;;;;5046695;28;20017;-61
2023/04/26 08:57:06;;;;;;;11.43;9.50;;;308.00;2304.00;;;;;;5051502;28;20095;-66
2023/04/26 08:59:36;;;;;;;22.90;13.82;;;308.10;2304.00;;;;;;5051392;28;20112;-60
2023/04/26 09:02:04;;;;;;;19.95;17.80;;;308.10;2304.00;;;;;;5050642;28;20024;-66
2023/04/26 09:04:30;;;;;;;13.98;12.38;;;333.10;2329.60;;;;;;5051132;28;20029;-61
2023/04/26 09:07:00;;;;;;;15.00;12.35;;;333.20;2329.60;;;;;;5050678;28;20028;-62
2023/04/26 09:09:27;;;;;;;11.50;10.30;;;333.20;2329.60;;;;;;5050731;28;20547;-61
2023/04/26 09:11:54;;;;;;;14.05;10.20;;;333.40;2329.60;;;;;;5050710;28;20426;-60
2023/04/26 09:14:21;;;;;;;13.00;11.57;;;333.40;2329.60;;;;;;5050465;28;20489;-63
2023/04/26 09:16:46;;;;;;;19.98;12.13;;;333.30;2329.60;;;;;;5050352;28;20108;-61
2023/04/26 09:19:12;;;;;;;13.25;9.65;;;333.30;2329.60;;;;;;5050448;28;20108;-60
2023/04/26 09:21:45;;;;;;;13.07;10.98;;;333.30;2329.60;;;;;;5050568;28;20060;-60
2023/04/26 09:24:12;;;;;;;;;;;333.70;2329.60;;;;;;5039165;28;20120;-60
2023/04/26 09:26:38;;;;;;;14.05;10.52;;;333.70;2329.60;;;;;;5049617;28;20260;-60
2023/04/26 09:29:14;;;;;;;15.68;13.52;;;333.70;2329.60;;;;;;5050667;28;20025;-59
2023/04/26 09:31:49;;;;;;;13.50;10.82;;;358.50;2329.60;;;;;;5050571;28;20096;-60
2023/04/26 09:34:15;;;;;;;12.23;10.23;;;358.60;2329.60;;;;;;5050394;28;20052;-60
2023/04/26 09:36:48;;;;;;;17.02;14.10;;;358.70;2329.60;;;;;;5050121;28;20416;-61
2023/04/26 09:39:14;;;;;;;21.40;16.52;;;359.00;2329.60;;;;;;5049991;28;20453;-61
2023/04/26 09:41:44;;;;;;;18.67;11.75;;;359.10;2329.60;;;;;;5050330;28;20176;-61
2023/04/26 09:44:23;;;;;;;13.52;9.18;;;359.30;2329.60;;;;;;5049983;28;20023;-60
2023/04/26 09:47:04;;;;;;;11.45;9.80;;;359.30;2329.60;;;;;;5050019;28;20052;-60
2023/04/26 09:49:33;;;;;;;13.30;10.13;;;384.20;2329.60;;;;;;5024882;28;20044;-60
2023/04/26 09:52:05;;;;;;;11.23;8.60;;;384.20;2329.60;;;;;;5049600;28;20057;-60
2023/04/26 09:54:57;;;;;;;16.20;11.85;;;384.20;2329.60;;;;;;5049836;28;20021;-60
2023/04/26 09:57:23;;;;;;;13.27;10.48;;;384.40;2329.60;;;;;;5046140;28;20041;-60
2023/04/26 09:59:50;;;;;;;14.52;13.02;;;384.60;2329.60;;;;;;5049665;28;20028;-60
2023/04/26 10:02:24;;;;;;;14.63;11.93;;;384.80;2329.60;;;;;;5049674;28;20021;-63
2023/04/26 10:04:51;;;;;;;14.10;9.80;;;384.70;2329.60;;;;;;5050012;28;20021;-60
2023/04/26 10:07:19;;;;;;;12.73;9.68;;;384.70;2329.60;;;;;;5049594;28;20021;-65
2023/04/26 10:09:45;;;;;;;17.33;13.02;;;409.70;2278.40;;;;;;5049963;28;20025;-64
2023/04/26 10:12:13;;;;;;;17.63;9.65;;;410.00;2252.80;;;;;;5049891;28;20110;-67
2023/04/26 10:14:40;;;;;;;21.40;17.35;;;409.70;2252.80;;;;;;5049657;28;20086;-60
2023/04/26 10:17:06;;;;;;;16.35;12.43;;;384.90;2227.20;;;;;;5049579;28;20037;-62
2023/04/26 10:19:36;;;;;;;18.80;11.95;;;409.70;2252.80;;;;;;5047016;28;20045;-62
2023/04/26 10:22:10;;;;;;;14.43;7.70;;;409.60;2227.20;;;;;;5048811;28;20037;-60
2023/04/26 10:24:36;;;;;;;13.48;9.27;;;384.70;2176.00;;;;;;5049017;28;20062;-60
2023/04/26 10:27:03;;;;;;;14.23;10.65;;;384.70;2201.60;;;;;;5048003;28;20150;-62
2023/04/26 10:29:55;;;;;;;10.50;8.45;;;409.60;2201.60;;;;;;5033606;28;20037;-60
2023/04/26 10:32:21;;;;;;;10.48;8.18;;;409.80;2150.40;;;;;;4965021;28;20105;-60
2023/04/26 10:35:11;;;;;;;15.27;9.15;;;410.40;2124.80;;;;;;4964952;28;20089;-59
2023/04/26 10:37:56;;;;;;;9.95;7.07;;;410.40;2073.60;;;;;;4968049;28;20050;-61
2023/04/26 10:40:24;;;;;;;11.10;7.93;;;435.20;2048.00;;;;;;4968279;28;20027;-60
2023/04/26 10:42:50;;;;;;;16.13;9.77;;;435.30;2048.00;;;;;;4963344;28;20508;-59
2023/04/26 10:45:27;;;;;;;10.02;7.57;;;435.20;2073.60;;;;;;4968227;28;20030;-60
2023/04/26 10:48:27;;;;;;;12.35;7.70;;;410.50;2048.00;;;;;;4964414;28;20023;-60
2023/04/26 10:51:06;;;;;;;13.70;8.80;;;410.50;2073.60;;;;;;4967784;28;20042;-61
2023/04/26 10:53:44;;;;;;;40.22;30.38;;;410.30;2099.20;;;;;;4968092;28;20038;-62
2023/04/26 10:56:31;;;;;;;13.15;9.88;;;410.50;2073.60;;;;;;4968140;28;20051;-60
2023/04/26 10:59:14;;;;;;;16.10;10.60;;;410.50;2073.60;;;;;;4956717;28;20055;-61
2023/04/26 11:01:40;;;;;;;63.38;50.85;;;410.10;1971.20;;;;;;4966811;28;20122;-61
2023/04/26 11:04:07;;;;;;;55.35;46.88;;;410.30;1996.80;;;;;;4967204;28;20047;-61
2023/04/26 11:06:53;;;;;;;16.05;13.50;;;435.20;1945.60;;;;;;4967215;28;20081;-61
2023/04/26 11:09:47;;;;;;;12.55;10.35;;;435.50;1894.40;;;;;;5007077;28;20037;-61
2023/04/26 11:12:15;;;;;;;12.18;8.90;;;435.60;1868.80;;;;;;5049091;28;20032;-60
2023/04/26 11:14:42;;;;;;;17.75;15.10;;;436.00;1843.20;;;;;;5049170;28;20051;-59
2023/04/26 11:17:08;;;;;;;27.38;22.55;;;435.80;1843.20;;;;;;5048746;28;20044;-60
2023/04/26 11:19:35;;;;;;;37.97;31.58;;;435.60;1920.00;;;;;;5047503;28;20024;-60
2023/04/26 11:22:01;;;;;;;36.88;28.83;;;435.90;1817.60;;;;;;5048690;28;20038;-68
2023/04/26 11:24:30;;;;;;;22.40;16.85;;;461.00;1894.40;;;;;;5048691;28;20057;-67
2023/04/26 11:26:57;;;;;;;16.67;13.77;;;436.00;1843.20;;;;;;5048447;28;20056;-60
2023/04/26 11:29:23;;;;;;;18.50;16.08;;;461.00;1843.20;;;;;;5048355;28;20025;-63
2023/04/26 11:31:53;;;;;;;11.80;9.95;;;461.20;1843.20;;;;;;5048250;28;20068;-61
2023/04/26 11:34:21;;;;;;;16.02;12.82;;;461.20;1792.00;;;;;;5046821;28;20035;-66
2023/04/26 11:36:47;;;;;;;12.27;7.78;;;461.00;1817.60;;;;;;5048311;28;20037;-61
2023/04/26 11:39:14;;;;;;;9.45;6.20;;;461.20;1817.60;;;;;;5048908;28;20025;-60
2023/04/26 11:41:39;;;;;;;8.10;6.20;;;460.90;1843.20;;;;;;5048493;28;20057;-60
2023/04/26 11:44:05;;;;;;;13.77;8.95;;;461.00;1868.80;;;;;;5048155;28;20052;-59
2023/04/26 11:46:31;;;;;;;19.50;15.82;;;461.20;1843.20;;;;;;5038430;28;20029;-60
2023/04/26 11:48:57;;;;;;;8.73;7.00;;;461.00;1868.80;;;;;;5045391;28;20067;-60
2023/04/26 11:51:23;;;;;;;24.92;19.88;;;435.80;1894.40;;;;;;5051822;28;20132;-60
2023/04/26 11:53:50;;;;;;;10.05;7.90;;;435.30;1868.80;;;;;;5052123;28;20108;-60
2023/04/26 11:56:21;;;;;;;17.88;12.63;;;410.30;1817.60;;;;;;5051762;28;20056;-61
2023/04/26 11:58:51;;;;;;;18.92;14.50;;;410.00;1817.60;;;;;;5052506;28;20035;-67
2023/04/26 12:01:25;;;;;;;13.85;9.75;;;409.90;1817.60;;;;;;5050070;28;20414;-60
2023/04/26 12:03:54;;;;;;;22.98;15.75;;;409.90;1792.00;;;;;;5051853;28;20475;-62
2023/04/26 12:06:25;;;;;;;8.88;7.05;;;410.50;1740.80;;;;;;5030672;28;20102;-60